createdAt,value
2023-03-27T00:00:01.861Z,5.31
2023-03-27T00:01:03.037Z,5.3
2023-03-27T00:02:01.952Z,5.31
2023-03-27T00:03:01.385Z,5.3
2023-03-27T00:04:01.823Z,5.3
2023-03-27T00:05:03.956Z,5.28
2023-03-27T00:06:01.797Z,5.28
2023-03-27T00:07:02.288Z,5.27
2023-03-27T00:08:01.800Z,5.25
2023-03-27T00:09:02.270Z,5.24
2023-03-27T00:10:01.726Z,5.22
2023-03-27T00:11:03.894Z,5.2
2023-03-27T00:12:01.716Z,5.19
2023-03-27T00:13:02.197Z,5.17
2023-03-27T00:14:01.636Z,5.16
2023-03-27T00:15:02.112Z,5.16
2023-03-27T00:16:01.633Z,5.16
2023-03-27T00:17:02.149Z,5.16
2023-03-27T00:18:01.659Z,5.16
2023-03-27T00:19:02.128Z,5.16
2023-03-27T00:20:03.242Z,5.16
2023-03-27T00:21:02.106Z,5.16
2023-03-27T00:22:01.588Z,5.15
2023-03-27T00:23:03.705Z,5.12
2023-03-27T00:24:01.560Z,5.09
2023-03-27T00:25:02.016Z,5.07
2023-03-27T00:26:01.543Z,5.06
2023-03-27T00:27:03.186Z,5.03
2023-03-27T00:28:01.884Z,5.01
2023-03-27T00:29:01.382Z,5
2023-03-27T00:30:01.876Z,4.94
2023-03-27T00:31:01.357Z,4.89
2023-03-27T00:32:01.789Z,4.84
2023-03-27T00:34:01.835Z,4.69
2023-03-27T00:35:02.286Z,4.67
2023-03-27T00:36:01.836Z,4.63
2023-03-27T00:37:02.284Z,4.59
2023-03-27T00:38:01.705Z,4.52
2023-03-27T00:39:02.222Z,4.44
2023-03-27T00:40:01.792Z,4.35
2023-03-27T00:41:02.328Z,4.32
2023-03-27T00:42:01.715Z,4.29
2023-03-27T00:43:03.802Z,4.21
2023-03-27T00:44:01.662Z,4.16
2023-03-27T00:45:02.151Z,4.14
2023-03-27T00:46:01.671Z,4.09
2023-03-27T00:47:02.042Z,4.07
2023-03-27T00:48:01.582Z,4.02
2023-03-27T00:49:02.051Z,4
2023-03-27T00:50:01.593Z,3.99
2023-03-27T00:51:01.972Z,3.94
2023-03-27T00:52:01.471Z,3.9
2023-03-27T00:53:01.965Z,3.87
2023-03-27T00:54:01.384Z,3.82
2023-03-27T00:55:03.582Z,3.75
2023-03-27T00:56:01.402Z,3.68
2023-03-27T00:57:01.914Z,3.64
2023-03-27T00:58:02.987Z,3.61
2023-03-27T00:59:01.869Z,3.56
2023-03-27T01:00:02.387Z,3.48
2023-03-27T01:01:01.823Z,3.47
2023-03-27T01:02:02.350Z,3.47
2023-03-27T01:03:01.838Z,3.44
2023-03-27T01:04:02.283Z,3.44
2023-03-27T01:05:01.719Z,3.4
2023-03-27T01:06:02.245Z,3.33
2023-03-27T01:07:01.702Z,3.29
2023-03-27T01:08:03.870Z,3.25
2023-03-27T01:09:01.691Z,3.24
2023-03-27T01:10:02.123Z,3.23
2023-03-27T01:11:01.669Z,3.21
2023-03-27T01:12:02.119Z,3.18
2023-03-27T01:13:01.562Z,3.17
2023-03-27T01:14:02.119Z,3.16
2023-03-27T01:15:01.564Z,3.15
2023-03-27T01:16:03.785Z,3.14
2023-03-27T01:17:01.564Z,3.13
2023-03-27T01:18:02.118Z,3.13
2023-03-27T01:19:01.475Z,3.1
2023-03-27T01:20:02.001Z,3.09
2023-03-27T01:21:03.169Z,3.1
2023-03-27T01:22:01.958Z,3.1
2023-03-27T01:23:01.518Z,3.11
2023-03-27T01:24:01.950Z,3.08
2023-03-27T01:25:01.410Z,3.09
2023-03-27T01:26:01.875Z,3.1
2023-03-27T01:27:01.434Z,3.08
2023-03-27T01:28:01.876Z,3.08
2023-03-27T01:29:01.409Z,3.09
2023-03-27T01:30:01.886Z,3.04
2023-03-27T01:31:01.348Z,2.97
2023-03-27T01:32:03.481Z,2.95
2023-03-27T01:33:02.300Z,2.93
2023-03-27T01:34:02.932Z,2.88
2023-03-27T01:35:03.153Z,2.82
2023-03-27T01:36:02.273Z,2.78
2023-03-27T01:37:01.588Z,2.76
2023-03-27T01:38:02.042Z,2.73
2023-03-27T01:39:03.235Z,2.72
2023-03-27T01:40:02.054Z,2.72
2023-03-27T01:41:01.473Z,2.71
2023-03-27T01:42:01.980Z,2.69
2023-03-27T01:43:03.056Z,2.66
2023-03-27T01:44:01.875Z,2.62
2023-03-27T01:45:01.416Z,2.58
2023-03-27T01:46:03.473Z,2.56
2023-03-27T01:48:03.547Z,2.53
2023-03-27T01:49:02.312Z,2.52
2023-03-27T01:50:01.715Z,2.53
2023-03-27T01:51:03.871Z,2.51
2023-03-27T01:52:01.731Z,2.51
2023-03-27T01:53:02.183Z,2.5
2023-03-27T01:54:01.660Z,2.46
2023-03-27T01:55:02.104Z,2.44
2023-03-27T01:56:03.302Z,2.4
2023-03-27T01:57:02.303Z,2.39
2023-03-27T01:58:01.552Z,2.4
2023-03-27T01:59:02.064Z,2.38
2023-03-27T02:00:17.648Z,2.36
2023-03-27T02:01:02.112Z,2.3
2023-03-27T02:02:01.500Z,2.31
2023-03-27T02:03:01.974Z,2.28
2023-03-27T02:04:01.468Z,2.27
2023-03-27T02:05:03.766Z,2.25
2023-03-27T02:06:01.416Z,2.24
2023-03-27T02:07:03.555Z,2.23
2023-03-27T02:08:01.379Z,2.23
2023-03-27T02:09:01.872Z,2.24
2023-03-27T02:10:01.324Z,2.25
2023-03-27T02:11:01.824Z,2.25
2023-03-27T02:12:02.270Z,2.24
2023-03-27T02:13:01.773Z,2.25
2023-03-27T02:14:02.283Z,2.25
2023-03-27T02:15:22.580Z,2.26
2023-03-27T02:16:02.226Z,2.25
2023-03-27T02:17:01.712Z,2.24
2023-03-27T02:18:02.238Z,2.25
2023-03-27T02:19:01.620Z,2.27
2023-03-27T02:20:02.104Z,2.27
2023-03-27T02:21:01.653Z,2.29
2023-03-27T02:22:02.116Z,2.29
2023-03-27T02:23:01.690Z,2.29
2023-03-27T02:24:02.080Z,2.29
2023-03-27T02:25:01.550Z,2.31
2023-03-27T02:26:03.723Z,2.32
2023-03-27T02:27:01.518Z,2.34
2023-03-27T02:28:03.627Z,2.34
2023-03-27T02:29:01.469Z,2.34
2023-03-27T02:30:03.547Z,2.36
2023-03-27T02:31:05.430Z,2.35
2023-03-27T02:32:03.596Z,2.34
2023-03-27T02:33:03.050Z,2.34
2023-03-27T02:34:01.792Z,2.36
2023-03-27T02:35:02.363Z,2.37
2023-03-27T02:36:01.840Z,2.37
2023-03-27T02:37:03.979Z,2.37
2023-03-27T02:38:01.705Z,2.38
2023-03-27T02:39:02.187Z,2.39
2023-03-27T02:40:01.719Z,2.41
2023-03-27T02:41:02.196Z,2.4
2023-03-27T02:42:02.838Z,2.38
2023-03-27T02:43:02.307Z,2.4
2023-03-27T02:44:01.827Z,2.42
2023-03-27T02:45:02.268Z,2.43
2023-03-27T02:46:01.761Z,2.39
2023-03-27T02:47:02.212Z,2.38
2023-03-27T02:48:01.805Z,2.39
2023-03-27T02:49:02.230Z,2.39
2023-03-27T02:50:01.636Z,2.39
2023-03-27T02:51:03.806Z,2.42
2023-03-27T02:52:03.261Z,2.41
2023-03-27T02:53:02.067Z,2.41
2023-03-27T02:54:03.248Z,2.42
2023-03-27T02:55:03.700Z,2.41
2023-03-27T02:56:01.479Z,2.42
2023-03-27T02:57:01.974Z,2.42
2023-03-27T02:58:03.279Z,2.43
2023-03-27T02:59:03.632Z,2.44
2023-03-27T03:00:01.392Z,2.43
2023-03-27T03:01:01.913Z,2.41
2023-03-27T03:02:01.340Z,2.39
2023-03-27T03:03:01.986Z,2.37
2023-03-27T03:04:01.325Z,2.36
2023-03-27T03:05:01.794Z,2.34
2023-03-27T03:06:02.361Z,2.31
2023-03-27T03:07:01.801Z,2.29
2023-03-27T03:08:02.277Z,2.27
2023-03-27T03:09:01.828Z,2.24
2023-03-27T03:10:03.954Z,2.22
2023-03-27T03:11:01.798Z,2.2
2023-03-27T03:12:02.280Z,2.19
2023-03-27T03:13:01.717Z,2.16
2023-03-27T03:14:02.318Z,2.12
2023-03-27T03:15:01.720Z,2.1
2023-03-27T03:16:02.238Z,2.07
2023-03-27T03:17:01.739Z,2.07
2023-03-27T03:18:02.234Z,2.05
2023-03-27T03:19:01.761Z,2.05
2023-03-27T03:20:02.213Z,2.03
2023-03-27T03:21:01.714Z,2.05
2023-03-27T03:22:03.866Z,2.05
2023-03-27T03:23:01.747Z,2.05
2023-03-27T03:24:03.830Z,2.05
2023-03-27T03:25:01.625Z,2.03
2023-03-27T03:26:02.128Z,2.02
2023-03-27T03:27:01.649Z,2.03
2023-03-27T03:28:03.798Z,2.05
2023-03-27T03:29:03.231Z,2.05
2023-03-27T03:30:02.184Z,2.06
2023-03-27T03:31:01.613Z,2.07
2023-03-27T03:32:02.068Z,2.06
2023-03-27T03:33:01.571Z,2.06
2023-03-27T03:34:02.044Z,2.05
2023-03-27T03:35:03.173Z,2.05
2023-03-27T03:36:01.977Z,2.06
2023-03-27T03:37:01.466Z,2.08
2023-03-27T03:38:01.964Z,2.09
2023-03-27T03:39:01.489Z,2.09
2023-03-27T03:40:01.953Z,2.1
2023-03-27T03:41:01.503Z,2.09
2023-03-27T03:42:03.630Z,2.1
2023-03-27T03:43:01.418Z,2.11
2023-03-27T03:44:01.873Z,2.1
2023-03-27T03:45:01.391Z,2.1
2023-03-27T03:46:03.594Z,2.1
2023-03-27T03:47:02.999Z,2.1
2023-03-27T03:48:01.838Z,2.11
2023-03-27T03:49:03.953Z,2.11
2023-03-27T03:50:01.961Z,2.11
2023-03-27T03:51:01.394Z,2.11
2023-03-27T03:52:03.858Z,2.11
2023-03-27T03:53:01.414Z,2.13
2023-03-27T03:54:01.882Z,2.14
2023-03-27T03:55:01.315Z,2.15
2023-03-27T03:56:01.809Z,2.16
2023-03-27T03:58:01.818Z,2.16
2023-03-27T03:59:02.288Z,2.19
2023-03-27T04:00:01.708Z,2.17
2023-03-27T04:01:03.860Z,2.19
2023-03-27T04:02:01.744Z,2.2
2023-03-27T04:03:02.263Z,2.21
2023-03-27T04:04:01.630Z,2.19
2023-03-27T04:05:08.970Z,2.2
2023-03-27T04:06:01.632Z,2.19
2023-03-27T04:07:02.174Z,2.19
2023-03-27T04:08:01.547Z,2.19
2023-03-27T04:09:02.028Z,2.19
2023-03-27T04:10:03.220Z,2.2
2023-03-27T04:11:03.704Z,2.21
2023-03-27T04:12:01.484Z,2.22
2023-03-27T04:13:01.957Z,2.24
2023-03-27T04:14:01.508Z,2.27
2023-03-27T04:15:01.951Z,2.28
2023-03-27T04:16:01.575Z,2.29
2023-03-27T04:17:01.869Z,2.3
2023-03-27T04:18:01.377Z,2.31
2023-03-27T04:19:01.886Z,2.31
2023-03-27T04:20:01.308Z,2.32
2023-03-27T04:21:01.840Z,2.34
2023-03-27T04:22:03.944Z,2.35
2023-03-27T04:23:01.786Z,2.37
2023-03-27T04:24:03.980Z,2.37
2023-03-27T04:25:01.717Z,2.35
2023-03-27T04:26:02.280Z,2.35
2023-03-27T04:27:01.700Z,2.34
2023-03-27T04:28:02.212Z,2.32
2023-03-27T04:29:01.626Z,2.31
2023-03-27T04:30:02.147Z,2.31
2023-03-27T04:31:01.659Z,2.32
2023-03-27T04:32:02.118Z,2.32
2023-03-27T04:33:03.262Z,2.32
2023-03-27T04:34:03.702Z,2.32
2023-03-27T04:35:01.516Z,2.31
2023-03-27T04:36:05.409Z,2.31
2023-03-27T04:37:01.484Z,2.34
2023-03-27T04:38:01.962Z,2.34
2023-03-27T04:39:01.394Z,2.32
2023-03-27T04:40:01.870Z,2.31
2023-03-27T04:41:01.410Z,2.31
2023-03-27T04:42:01.890Z,2.3
2023-03-27T04:43:01.324Z,2.3
2023-03-27T04:44:01.830Z,2.3
2023-03-27T04:45:02.287Z,2.29
2023-03-27T04:46:01.809Z,2.28
2023-03-27T04:47:02.397Z,2.27
2023-03-27T04:48:01.785Z,2.27
2023-03-27T04:49:02.207Z,2.26
2023-03-27T04:50:01.724Z,2.26
2023-03-27T04:51:02.213Z,2.26
2023-03-27T04:52:01.666Z,2.25
2023-03-27T04:53:02.152Z,2.24
2023-03-27T04:54:01.673Z,2.23
2023-03-27T04:55:02.202Z,2.23
2023-03-27T04:56:01.632Z,2.22
2023-03-27T04:57:02.283Z,2.21
2023-03-27T04:58:01.801Z,2.21
2023-03-27T04:59:03.631Z,2.2
2023-03-27T05:00:01.322Z,2.2
2023-03-27T05:01:01.944Z,2.2
2023-03-27T05:02:01.844Z,2.17
2023-03-27T05:04:02.390Z,2.15
2023-03-27T05:05:01.845Z,2.15
2023-03-27T05:06:02.335Z,2.15
2023-03-27T05:07:01.896Z,2.15
2023-03-27T05:08:01.520Z,2.16
2023-03-27T05:09:02.139Z,2.19
2023-03-27T05:10:01.634Z,2.17
2023-03-27T05:11:02.158Z,2.17
2023-03-27T05:12:01.628Z,2.19
2023-03-27T05:13:02.124Z,2.2
2023-03-27T05:14:01.649Z,2.21
2023-03-27T05:15:02.245Z,2.22
2023-03-27T05:16:03.411Z,2.22
2023-03-27T05:17:02.182Z,2.22
2023-03-27T05:18:01.725Z,2.22
2023-03-27T05:19:02.199Z,2.22
2023-03-27T05:20:01.726Z,2.21
2023-03-27T05:21:03.860Z,2.23
2023-03-27T05:22:01.629Z,2.23
2023-03-27T05:23:02.114Z,2.24
2023-03-27T05:24:01.700Z,2.25
2023-03-27T05:25:02.267Z,2.25
2023-03-27T05:26:03.545Z,2.27
2023-03-27T05:27:01.471Z,2.25
2023-03-27T05:28:02.103Z,2.25
2023-03-27T05:29:01.648Z,2.26
2023-03-27T05:30:02.266Z,2.26
2023-03-27T05:31:01.785Z,2.28
2023-03-27T05:32:01.662Z,2.29
2023-03-27T05:33:02.277Z,2.26
2023-03-27T05:34:01.968Z,2.21
2023-03-27T05:35:01.390Z,2.19
2023-03-27T05:36:03.664Z,2.15
2023-03-27T05:37:03.239Z,2.12
2023-03-27T05:38:01.910Z,2.1
2023-03-27T05:39:03.125Z,2.09
2023-03-27T05:41:02.209Z,2.06
2023-03-27T05:42:01.881Z,2.02
2023-03-27T05:43:03.061Z,2
2023-03-27T05:44:01.934Z,2
2023-03-27T05:45:03.084Z,1.99
2023-03-27T05:46:01.946Z,1.95
2023-03-27T05:47:01.466Z,1.93
2023-03-27T05:48:03.900Z,1.9
2023-03-27T05:49:01.779Z,1.88
2023-03-27T05:50:01.381Z,1.87
2023-03-27T05:51:01.951Z,1.87
2023-03-27T05:52:01.538Z,1.88
2023-03-27T05:53:02.108Z,1.88
2023-03-27T05:54:01.607Z,1.88
2023-03-27T05:55:03.866Z,1.87
2023-03-27T05:56:02.810Z,1.87
2023-03-27T05:57:01.614Z,1.88
2023-03-27T05:58:03.777Z,1.88
2023-03-27T05:59:01.629Z,1.91
2023-03-27T06:00:01.706Z,1.91
2023-03-27T06:01:01.565Z,1.9
2023-03-27T06:02:02.245Z,1.9
2023-03-27T06:03:01.742Z,1.9
2023-03-27T06:04:01.444Z,1.91
2023-03-27T06:05:01.967Z,1.93
2023-03-27T06:06:03.219Z,1.94
2023-03-27T06:07:02.104Z,1.91
2023-03-27T06:08:03.532Z,1.91
2023-03-27T06:09:02.276Z,1.91
2023-03-27T06:10:01.808Z,1.88
2023-03-27T06:11:02.268Z,1.84
2023-03-27T06:12:01.700Z,1.82
2023-03-27T06:13:02.178Z,1.8
2023-03-27T06:14:01.710Z,1.8
2023-03-27T06:15:02.208Z,1.79
2023-03-27T06:16:03.342Z,1.81
2023-03-27T06:17:02.110Z,1.83
2023-03-27T06:18:01.716Z,1.81
2023-03-27T06:19:03.714Z,1.79
2023-03-27T06:20:03.235Z,1.78
2023-03-27T06:21:03.702Z,1.78
2023-03-27T06:22:03.140Z,1.78
2023-03-27T06:23:01.974Z,1.76
2023-03-27T06:24:01.481Z,1.75
2023-03-27T06:25:01.950Z,1.77
2023-03-27T06:26:01.401Z,1.79
2023-03-27T06:27:03.557Z,1.78
2023-03-27T06:28:01.300Z,1.81
2023-03-27T06:29:01.790Z,1.81
2023-03-27T06:30:02.280Z,1.81
2023-03-27T06:31:03.525Z,1.82
2023-03-27T06:32:02.268Z,1.84
2023-03-27T06:33:01.760Z,1.86
2023-03-27T06:34:02.189Z,1.91
2023-03-27T06:35:01.732Z,1.9
2023-03-27T06:36:02.230Z,1.94
2023-03-27T06:37:03.388Z,2
2023-03-27T06:38:03.809Z,2.01
2023-03-27T06:39:01.629Z,2.02
2023-03-27T06:40:02.322Z,2.06
2023-03-27T06:41:03.245Z,2.11
2023-03-27T06:42:03.739Z,2.15
2023-03-27T06:43:01.585Z,2.19
2023-03-27T06:44:03.720Z,2.15
2023-03-27T06:45:01.471Z,2.1
2023-03-27T06:46:01.987Z,2.07
2023-03-27T06:47:01.556Z,2.07
2023-03-27T06:48:15.441Z,2.01
2023-03-27T06:49:03.084Z,1.97
2023-03-27T06:50:01.885Z,1.93
2023-03-27T06:51:01.398Z,1.88
2023-03-27T06:52:01.878Z,1.84
2023-03-27T06:53:02.163Z,1.81
2023-03-27T06:54:01.791Z,1.79
2023-03-27T06:55:02.298Z,1.79
2023-03-27T06:56:03.480Z,1.78
2023-03-27T06:57:02.342Z,1.79
2023-03-27T06:58:03.408Z,1.79
2023-03-27T06:59:02.209Z,1.79
2023-03-27T07:00:02.419Z,1.77
2023-03-27T07:01:02.193Z,1.79
2023-03-27T07:02:03.444Z,1.77
2023-03-27T07:03:02.212Z,1.79
2023-03-27T07:04:01.650Z,1.79
2023-03-27T07:05:05.332Z,1.78
2023-03-27T07:06:03.456Z,1.79
2023-03-27T07:07:02.142Z,1.8
2023-03-27T07:08:08.350Z,1.82
2023-03-27T07:09:02.143Z,1.87
2023-03-27T07:10:01.596Z,1.93
2023-03-27T07:12:01.813Z,2.02
2023-03-27T07:13:02.281Z,2.1
2023-03-27T07:14:01.726Z,2.21
2023-03-27T07:15:02.330Z,2.28
2023-03-27T07:16:02.013Z,2.41
2023-03-27T07:17:01.558Z,2.53
2023-03-27T07:18:03.730Z,2.58
2023-03-27T07:19:02.515Z,2.71
2023-03-27T07:20:02.088Z,2.79
2023-03-27T07:21:01.508Z,2.84
2023-03-27T07:22:02.196Z,2.8
2023-03-27T07:23:01.460Z,2.79
2023-03-27T07:24:02.045Z,2.82
2023-03-27T07:25:01.563Z,2.79
2023-03-27T07:26:02.046Z,2.79
2023-03-27T07:27:01.624Z,2.76
2023-03-27T07:28:06.306Z,2.71
2023-03-27T07:29:01.582Z,2.67
2023-03-27T07:30:02.024Z,2.62
2023-03-27T07:31:03.995Z,2.65
2023-03-27T07:32:06.318Z,2.65
2023-03-27T07:33:01.749Z,2.64
2023-03-27T07:34:04.042Z,2.58
2023-03-27T07:35:01.729Z,2.54
2023-03-27T07:36:02.244Z,2.55
2023-03-27T07:37:03.402Z,2.53
2023-03-27T07:38:03.865Z,2.47
2023-03-27T07:39:01.700Z,2.4
2023-03-27T07:40:02.306Z,2.38
2023-03-27T07:41:01.782Z,2.38
2023-03-27T07:42:01.316Z,2.39
2023-03-27T07:43:01.875Z,2.37
2023-03-27T07:44:01.398Z,2.32
2023-03-27T07:45:04.191Z,2.32
2023-03-27T07:46:01.486Z,2.3
2023-03-27T07:47:03.703Z,2.27
2023-03-27T07:48:01.710Z,2.23
2023-03-27T07:49:02.110Z,2.21
2023-03-27T07:50:01.682Z,2.15
2023-03-27T07:52:03.488Z,2.13
2023-03-27T07:53:02.298Z,2.1
2023-03-27T07:54:02.106Z,2.06
2023-03-27T07:55:01.714Z,2.02
2023-03-27T07:56:02.216Z,2.01
2023-03-27T07:57:01.951Z,1.97
2023-03-27T07:58:03.278Z,1.94
2023-03-27T07:59:02.044Z,2
2023-03-27T08:00:01.553Z,2.13
2023-03-27T08:01:02.664Z,2.23
2023-03-27T08:02:03.395Z,2.38
2023-03-27T08:03:01.631Z,2.54
2023-03-27T08:04:03.906Z,2.64
2023-03-27T08:05:03.616Z,2.82
2023-03-27T08:06:01.476Z,3.03
2023-03-27T08:07:01.313Z,3.14
2023-03-27T08:08:01.913Z,3.17
2023-03-27T08:09:03.155Z,3.1
2023-03-27T08:10:01.946Z,3.14
2023-03-27T08:11:01.569Z,3.28
2023-03-27T08:12:03.886Z,3.48
2023-03-27T08:13:01.740Z,3.59
2023-03-27T08:14:02.215Z,3.48
2023-03-27T08:15:01.868Z,3.63
2023-03-27T08:16:01.721Z,3.75
2023-03-27T08:18:02.164Z,3.64
2023-03-27T08:19:01.638Z,3.48
2023-03-27T08:20:01.481Z,3.42
2023-03-27T08:21:03.883Z,3.29
2023-03-27T08:22:01.945Z,3.17
2023-03-27T08:23:03.410Z,3.1
2023-03-27T08:24:01.736Z,3.1
2023-03-27T08:25:01.706Z,3.06
2023-03-27T08:26:02.200Z,3.08
2023-03-27T08:27:01.652Z,3.09
2023-03-27T08:28:02.184Z,3.03
2023-03-27T08:29:01.619Z,3
2023-03-27T08:30:03.793Z,2.98
2023-03-27T08:31:02.522Z,2.9
2023-03-27T08:32:03.746Z,2.85
2023-03-27T08:33:01.640Z,2.79
2023-03-27T08:34:02.033Z,2.73
2023-03-27T08:35:01.557Z,2.68
2023-03-27T08:36:02.077Z,2.85
2023-03-27T08:37:01.483Z,2.98
2023-03-27T08:38:05.839Z,3.13
2023-03-27T08:39:01.393Z,3.31
2023-03-27T08:40:01.964Z,3.47
2023-03-27T08:41:01.385Z,3.63
2023-03-27T08:42:01.869Z,3.83
2023-03-27T08:43:01.446Z,3.88
2023-03-27T08:44:01.944Z,3.99
2023-03-27T08:45:01.313Z,3.99
2023-03-27T08:46:01.823Z,3.93
2023-03-27T08:47:02.271Z,3.84
2023-03-27T08:48:03.500Z,3.99
2023-03-27T08:49:02.294Z,4.13
2023-03-27T08:50:01.711Z,4.23
2023-03-27T08:51:02.186Z,4.26
2023-03-27T08:52:01.749Z,4.36
2023-03-27T08:53:02.197Z,4.46
2023-03-27T08:54:01.648Z,4.49
2023-03-27T08:55:03.808Z,4.54
2023-03-27T08:56:01.635Z,4.77
2023-03-27T08:57:02.181Z,4.92
2023-03-27T08:58:03.225Z,5
2023-03-27T08:59:03.743Z,5.02
2023-03-27T09:00:01.544Z,4.88
2023-03-27T09:01:02.045Z,4.69
2023-03-27T09:02:01.498Z,4.48
2023-03-27T09:03:02.091Z,4.33
2023-03-27T09:04:01.569Z,4.18
2023-03-27T09:05:02.076Z,4.07
2023-03-27T09:06:01.481Z,4
2023-03-27T09:07:01.957Z,3.91
2023-03-27T09:08:01.515Z,3.89
2023-03-27T09:09:01.977Z,3.86
2023-03-27T09:10:01.399Z,3.92
2023-03-27T09:11:01.955Z,4.09
2023-03-27T09:12:01.415Z,4.33
2023-03-27T09:13:01.868Z,4.46
2023-03-27T09:14:01.401Z,4.61
2023-03-27T09:15:01.875Z,4.73
2023-03-27T09:16:01.331Z,4.91
2023-03-27T09:17:03.568Z,4.88
2023-03-27T09:18:01.345Z,4.92
2023-03-27T09:19:03.469Z,4.91
2023-03-27T09:20:03.956Z,5.15
2023-03-27T09:21:01.786Z,5.33
2023-03-27T09:22:02.268Z,5.46
2023-03-27T09:23:01.835Z,5.67
2023-03-27T09:24:02.287Z,5.65
2023-03-27T09:25:01.803Z,5.55
2023-03-27T09:26:02.281Z,5.42
2023-03-27T09:27:07.588Z,5.31
2023-03-27T09:28:03.863Z,5.11
2023-03-27T09:29:03.411Z,4.95
2023-03-27T09:30:06.044Z,4.84
2023-03-27T09:31:01.756Z,4.73
2023-03-27T09:32:02.194Z,4.84
2023-03-27T09:33:02.894Z,4.92
2023-03-27T09:34:01.630Z,5.01
2023-03-27T09:35:02.139Z,5.08
2023-03-27T09:36:01.565Z,5.19
2023-03-27T09:37:02.028Z,5.19
2023-03-27T09:38:01.476Z,5.19
2023-03-27T09:39:01.971Z,5.33
2023-03-27T09:40:01.507Z,5.43
2023-03-27T09:41:01.980Z,5.45
2023-03-27T09:42:06.885Z,5.47
2023-03-27T09:43:03.539Z,5.57
2023-03-27T09:44:01.316Z,5.54
2023-03-27T09:45:03.487Z,5.49
2023-03-27T09:46:04.018Z,5.48
2023-03-27T09:47:01.817Z,5.4
2023-03-27T09:48:04.058Z,5.18
2023-03-27T09:49:01.711Z,5.1
2023-03-27T09:50:03.892Z,5.08
2023-03-27T09:51:03.338Z,5.1
2023-03-27T09:52:02.197Z,5.13
2023-03-27T09:53:03.303Z,5.09
2023-03-27T09:54:02.112Z,5.03
2023-03-27T09:55:01.569Z,4.77
2023-03-27T09:56:03.325Z,4.64
2023-03-27T09:57:01.623Z,4.67
2023-03-27T09:58:02.058Z,4.72
2023-03-27T09:59:01.556Z,4.87
2023-03-27T10:00:02.050Z,5.01
2023-03-27T10:01:01.551Z,5.1
2023-03-27T10:02:01.960Z,5.13
2023-03-27T10:03:01.616Z,5.13
2023-03-27T10:04:03.706Z,5.13
2023-03-27T10:05:01.399Z,5.13
2023-03-27T10:06:01.884Z,5.1
2023-03-27T10:07:01.332Z,5.03
2023-03-27T10:08:01.787Z,4.72
2023-03-27T10:09:04.048Z,4.42
2023-03-27T10:10:03.472Z,4.27
2023-03-27T10:11:03.946Z,4.17
2023-03-27T10:12:01.724Z,4.05
2023-03-27T10:13:02.192Z,4.01
2023-03-27T10:14:01.715Z,3.99
2023-03-27T10:15:02.201Z,4.03
2023-03-27T10:16:03.361Z,4.22
2023-03-27T10:17:02.185Z,4.41
2023-03-27T10:18:01.651Z,4.59
2023-03-27T10:19:02.132Z,4.78
2023-03-27T10:20:01.587Z,4.97
2023-03-27T10:21:02.044Z,5.12
2023-03-27T10:22:01.555Z,5.11
2023-03-27T10:23:02.133Z,5.03
2023-03-27T10:24:01.502Z,4.98
2023-03-27T10:25:01.945Z,5
2023-03-27T10:26:01.548Z,4.96
2023-03-27T10:27:01.964Z,4.84
2023-03-27T10:28:01.640Z,4.61
2023-03-27T10:29:01.888Z,4.45
2023-03-27T10:30:01.394Z,4.33
2023-03-27T10:31:01.922Z,4.22
2023-03-27T10:32:01.407Z,4.14
2023-03-27T10:33:01.987Z,4.19
2023-03-27T10:34:02.274Z,4.3
2023-03-27T10:35:01.799Z,4.42
2023-03-27T10:36:02.323Z,4.56
2023-03-27T10:37:01.749Z,4.71
2023-03-27T10:38:02.201Z,4.86
2023-03-27T10:39:01.712Z,5.06
2023-03-27T10:40:03.897Z,5.25
2023-03-27T10:41:01.809Z,5.45
2023-03-27T10:42:02.267Z,5.46
2023-03-27T10:43:01.804Z,5.45
2023-03-27T10:44:02.271Z,5.38
2023-03-27T10:45:01.717Z,5.19
2023-03-27T10:46:02.467Z,4.9
2023-03-27T10:47:01.721Z,4.65
2023-03-27T10:48:02.258Z,4.47
2023-03-27T10:49:01.647Z,4.19
2023-03-27T10:50:02.125Z,3.92
2023-03-27T10:51:01.634Z,3.72
2023-03-27T10:52:02.110Z,3.57
2023-03-27T10:53:03.282Z,3.46
2023-03-27T10:54:03.863Z,3.26
2023-03-27T10:55:01.521Z,3.19
2023-03-27T10:56:01.985Z,3.15
2023-03-27T10:57:01.532Z,3.13
2023-03-27T10:58:01.966Z,3.14
2023-03-27T10:59:03.077Z,3.21
2023-03-27T11:00:01.898Z,3.35
2023-03-27T11:01:01.469Z,3.47
2023-03-27T11:02:08.737Z,3.64
2023-03-27T11:03:02.709Z,3.83
2023-03-27T11:04:01.746Z,4.02
2023-03-27T11:05:02.293Z,4.21
2023-03-27T11:06:01.715Z,4.38
2023-03-27T11:07:04.037Z,4.54
2023-03-27T11:08:01.776Z,4.62
2023-03-27T11:09:03.086Z,4.78
2023-03-27T11:10:02.050Z,4.98
2023-03-27T11:11:01.650Z,5.19
2023-03-27T11:12:02.279Z,5.38
2023-03-27T11:13:02.276Z,5.49
2023-03-27T11:14:01.795Z,5.46
2023-03-27T11:15:02.276Z,5.49
2023-03-27T11:16:01.643Z,5.47
2023-03-27T11:17:02.218Z,5.41
2023-03-27T11:18:02.114Z,5.37
2023-03-27T11:19:01.622Z,5.27
2023-03-27T11:20:03.915Z,5.12
2023-03-27T11:21:01.650Z,5.03
2023-03-27T11:22:02.204Z,5.03
2023-03-27T11:23:01.793Z,5.03
2023-03-27T11:24:02.372Z,4.98
2023-03-27T11:25:01.870Z,4.94
2023-03-27T11:26:03.068Z,4.83
2023-03-27T11:27:03.725Z,4.67
2023-03-27T11:28:03.138Z,4.43
2023-03-27T11:29:02.055Z,4.23
2023-03-27T11:30:01.574Z,4.05
2023-03-27T11:31:12.876Z,3.9
2023-03-27T11:32:01.836Z,3.77
2023-03-27T11:33:01.436Z,3.73
2023-03-27T11:34:03.542Z,3.6
2023-03-27T11:35:03.947Z,3.5
2023-03-27T11:36:02.097Z,3.53
2023-03-27T11:37:01.632Z,3.64
2023-03-27T11:38:03.021Z,3.79
2023-03-27T11:39:01.868Z,4.06
2023-03-27T11:40:01.649Z,4.3
2023-03-27T11:41:02.285Z,4.41
2023-03-27T11:42:03.540Z,4.6
2023-03-27T11:43:01.486Z,4.62
2023-03-27T11:44:01.964Z,4.59
2023-03-27T11:45:01.712Z,4.57
2023-03-27T11:46:03.993Z,4.56
2023-03-27T11:47:03.477Z,4.52
2023-03-27T11:48:10.882Z,4.46
2023-03-27T11:49:03.318Z,4.39
2023-03-27T11:50:02.146Z,4.33
2023-03-27T11:51:01.558Z,4.27
2023-03-27T11:52:02.026Z,4.34
2023-03-27T11:53:01.542Z,4.44
2023-03-27T11:54:03.725Z,4.56
2023-03-27T11:55:03.134Z,4.75
2023-03-27T11:56:01.944Z,5.02
2023-03-27T11:57:01.542Z,5.19
2023-03-27T11:58:03.668Z,5.31
2023-03-27T11:59:01.390Z,5.57
2023-03-27T12:00:01.874Z,5.87
2023-03-27T12:01:02.978Z,6.12
2023-03-27T12:02:01.918Z,6.27
2023-03-27T12:03:01.368Z,6.42
2023-03-27T12:04:03.600Z,6.53
2023-03-27T12:05:02.257Z,6.56
2023-03-27T12:06:03.466Z,6.63
2023-03-27T12:07:04.928Z,6.58
2023-03-27T12:08:01.758Z,6.42
2023-03-27T12:09:02.230Z,6.23
2023-03-27T12:10:03.331Z,5.91
2023-03-27T12:11:02.107Z,5.57
2023-03-27T12:12:01.628Z,5.28
2023-03-27T12:13:02.127Z,4.97
2023-03-27T12:14:02.744Z,4.71
2023-03-27T12:15:02.043Z,4.54
2023-03-27T12:16:01.580Z,4.35
2023-03-27T12:17:02.021Z,4.14
2023-03-27T12:18:01.477Z,4
2023-03-27T12:19:08.106Z,3.95
2023-03-27T12:20:01.474Z,3.99
2023-03-27T12:21:02.046Z,4.01
2023-03-27T12:22:09.222Z,4.16
2023-03-27T12:23:01.952Z,4.3
2023-03-27T12:24:01.387Z,4.44
2023-03-27T12:25:01.883Z,4.71
2023-03-27T12:26:01.389Z,4.92
2023-03-27T12:27:01.895Z,5.1
2023-03-27T12:28:03.012Z,5.18
2023-03-27T12:29:01.778Z,5.25
2023-03-27T12:30:02.333Z,5.4
2023-03-27T12:31:01.795Z,5.57
2023-03-27T12:32:02.306Z,5.79
2023-03-27T12:33:01.762Z,5.95
2023-03-27T12:34:02.292Z,6.08
2023-03-27T12:35:01.709Z,6.24
2023-03-27T12:36:02.285Z,6.39
2023-03-27T12:37:03.320Z,6.4
2023-03-27T12:38:02.184Z,6.31
2023-03-27T12:39:01.616Z,6.3
2023-03-27T12:40:02.135Z,6.29
2023-03-27T12:41:03.240Z,6.33
2023-03-27T12:42:02.124Z,6.29
2023-03-27T12:43:01.543Z,6.14
2023-03-27T12:44:02.028Z,6.05
2023-03-27T12:45:01.485Z,5.87
2023-03-27T12:46:02.348Z,5.56
2023-03-27T12:47:01.553Z,5.18
2023-03-27T12:48:02.049Z,4.78
2023-03-27T12:49:01.576Z,4.43
2023-03-27T12:50:03.715Z,4.16
2023-03-27T12:51:01.758Z,3.93
2023-03-27T12:52:01.960Z,3.85
2023-03-27T12:53:03.073Z,3.78
2023-03-27T12:54:01.892Z,3.79
2023-03-27T12:55:01.440Z,3.79
2023-03-27T12:56:02.041Z,3.82
2023-03-27T12:57:03.243Z,3.83
2023-03-27T12:58:02.177Z,3.89
2023-03-27T12:59:05.602Z,3.97
2023-03-27T13:00:01.969Z,4.05
2023-03-27T13:01:01.516Z,4.15
2023-03-27T13:02:03.686Z,4.26
2023-03-27T13:03:03.103Z,4.42
2023-03-27T13:04:03.689Z,4.58
2023-03-27T13:05:01.327Z,4.78
2023-03-27T13:06:01.793Z,4.95
2023-03-27T13:07:02.361Z,5.09
2023-03-27T13:08:01.787Z,5.2
2023-03-27T13:09:02.294Z,5.22
2023-03-27T13:10:01.839Z,5.3
2023-03-27T13:11:02.225Z,5.48
2023-03-27T13:12:01.730Z,5.49
2023-03-27T13:13:02.209Z,5.46
2023-03-27T13:14:01.747Z,5.51
2023-03-27T13:15:02.226Z,5.65
2023-03-27T13:16:01.733Z,5.67
2023-03-27T13:17:02.112Z,5.81
2023-03-27T13:18:01.736Z,5.92
2023-03-27T13:19:02.130Z,6.05
2023-03-27T13:20:01.630Z,6.07
2023-03-27T13:21:03.791Z,6.15
2023-03-27T13:22:03.247Z,6.17
2023-03-27T13:23:02.121Z,6.17
2023-03-27T13:24:01.594Z,6.24
2023-03-27T13:25:02.066Z,6.36
2023-03-27T13:26:01.584Z,6.44
2023-03-27T13:27:02.041Z,6.58
2023-03-27T13:28:01.561Z,6.72
2023-03-27T13:29:02.054Z,6.72
2023-03-27T13:30:01.563Z,6.71